Flugplatz Donauwörth-Genderkingen

Für EDMQ sind keine METAR/TAF Berichte vorhanden.
Es werden die Flugwettermeldungen vom Flugplatz Neuburg Airport in 26 km Entfernung angezeigt.

Bericht für ETSN

vom 23.08. um 12:20 UTC

Wind 7 kt aus 80°

Sichtweite 10 km oder mehr

aufgelockert bewölkt in 4500 ft

Temperatur 24.0°C

Taupunkt 13.0°C

Luftfeuchtigkeit 50%

Luftdruck 1025 hPa

ETSN 231220Z 08007KT 9999 SCT045 24/13 Q1025 BLU+

Prognose für ETSN

vom 23.08. um 00:00 UTC

Zwischen 00:00 UTC und 00:00 UTC

Wind 6 kt aus 70°

Sichtweite 10 km oder mehr

keine signifikanten Wettererscheinungen

aufgelockert bewölkt in 5000 ft

TAF ETSN 231120Z 2311/2320 07006KT 9999 NSW SCT050 BY ETGL
Impressum